Time;durP1;ratioP1;P1;durP2;ratioP2;P2;SDS_P1;SDS_P2;PMS_P1;PMS_P2;Temp;Humidity;BMP_temperature;BMP_pressure;BME280_temperature;BME280_humidity;BME280_pressure;Samples;Min_cycle;Max_cycle;Signal;HPM_P1;HPM_P2
2023/07/31 00:00:12;;;;;;;2.85;2.50;;;;;;;22.09;57.59;94671.09;5090978;28;20501;-83
2023/07/31 00:02:37;;;;;;;3.53;3.22;;;;;;;22.16;56.85;94662.91;5088262;28;20023;-84
2023/07/31 00:05:03;;;;;;;4.35;2.85;;;;;;;22.09;57.19;94666.25;5089818;28;20107;-83
2023/07/31 00:07:28;;;;;;;3.72;3.03;;;;;;;22.05;57.32;94665.75;5092019;28;20075;-83
2023/07/31 00:09:54;;;;;;;4.00;3.00;;;;;;;22.12;57.37;94673.63;5098348;28;20035;-83
2023/07/31 00:12:22;;;;;;;3.75;3.42;;;;;;;22.10;57.72;94667.78;5090402;28;20024;-83
2023/07/31 00:14:48;;;;;;;3.92;3.50;;;;;;;22.06;57.91;94670.06;5088587;28;20408;-84
2023/07/31 00:17:14;;;;;;;3.88;2.83;;;;;;;22.06;57.96;94664.47;5090091;28;20030;-83
2023/07/31 00:19:39;;;;;;;5.15;3.10;;;;;;;22.07;57.76;94657.59;5088980;28;20081;-83
2023/07/31 00:22:05;;;;;;;3.80;3.13;;;;;;;22.10;58.00;94650.22;5088144;28;20020;-83
2023/07/31 00:24:30;;;;;;;4.40;3.20;;;;;;;22.09;58.24;94660.66;5089040;28;20102;-83
2023/07/31 00:26:56;;;;;;;4.10;3.45;;;;;;;22.08;58.17;94652.75;5089337;28;20025;-84
2023/07/31 00:29:21;;;;;;;4.75;3.33;;;;;;;22.10;58.87;94639.78;5087465;28;20448;-84
2023/07/31 00:31:47;;;;;;;4.63;3.88;;;;;;;22.04;59.11;94630.66;5092292;28;20099;-84
2023/07/31 00:34:12;;;;;;;3.75;3.10;;;;;;;22.05;59.35;94637.00;5089480;28;20383;-86
2023/07/31 00:36:37;;;;;;;4.07;3.33;;;;;;;22.01;59.72;94632.44;5088979;28;20036;-85
2023/07/31 00:39:04;;;;;;;6.13;3.85;;;;;;;22.04;59.82;94615.91;5089458;28;20477;-86
2023/07/31 00:41:29;;;;;;;4.05;3.65;;;;;;;22.09;59.50;94626.28;5088412;28;20020;-85
2023/07/31 00:43:55;;;;;;;4.85;3.90;;;;;;;22.08;59.70;94633.16;5087920;28;20036;-86
2023/07/31 00:46:21;;;;;;;6.07;4.82;;;;;;;22.06;59.84;94627.31;5088792;28;20397;-87
2023/07/31 00:48:46;;;;;;;5.85;5.28;;;;;;;22.01;60.24;94626.84;5089065;28;20025;-86
2023/07/31 00:51:12;;;;;;;6.75;6.15;;;;;;;21.95;60.55;94628.91;5097616;28;20016;-86
2023/07/31 00:53:37;;;;;;;7.93;6.55;;;;;;;21.89;60.78;94622.59;5101427;28;20054;-84
2023/07/31 00:56:04;;;;;;;7.50;6.70;;;;;;;21.85;61.03;94629.75;5097664;28;20089;-86
2023/07/31 00:58:30;;;;;;;8.52;7.68;;;;;;;21.84;60.96;94623.41;5087856;28;20036;-87
2023/07/31 01:00:55;;;;;;;8.55;7.72;;;;;;;21.87;60.72;94622.38;5088838;28;20448;-87
2023/07/31 01:03:20;;;;;;;10.02;8.23;;;;;;;21.81;60.92;94615.28;5088507;28;20020;-87
2023/07/31 01:05:57;;;;;;;9.05;8.15;;;;;;;21.78;60.91;94621.91;5087304;28;20520;-86
2023/07/31 01:08:42;;;;;;;10.23;9.23;;;;;;;21.72;61.21;94628.31;5088525;28;20097;-87
2023/07/31 01:11:24;;;;;;;9.88;8.98;;;;;;;21.65;61.48;94626.06;5087365;28;20016;-87
2023/07/31 01:13:50;;;;;;;10.90;9.80;;;;;;;21.59;61.42;94614.16;5095823;28;20051;-86
2023/07/31 01:16:15;;;;;;;11.10;9.82;;;;;;;21.65;61.79;94616.91;5086163;28;20129;-86
2023/07/31 01:18:40;;;;;;;11.35;10.25;;;;;;;21.64;61.67;94612.59;5087661;28;20122;-87
2023/07/31 01:21:23;;;;;;;10.85;9.77;;;;;;;21.61;61.45;94611.59;5087811;28;20489;-86
2023/07/31 01:24:21;;;;;;;12.30;11.10;;;;;;;21.61;61.53;94611.59;5104728;28;20036;-85
2023/07/31 01:26:52;;;;;;;11.80;10.70;;;;;;;21.54;61.65;94608.59;5089034;28;20108;-86
2023/07/31 01:29:26;;;;;;;12.75;10.80;;;;;;;21.54;61.97;94598.16;5087312;28;20028;-86
2023/07/31 01:31:53;;;;;;;12.43;11.10;;;;;;;21.54;62.05;94606.53;5086365;28;20051;-86
2023/07/31 01:34:19;;;;;;;12.25;11.05;;;;;;;21.48;62.14;94611.41;5086208;28;20458;-86
2023/07/31 01:36:44;;;;;;;13.65;12.25;;;;;;;21.44;62.20;94600.50;5087889;28;20107;-85
2023/07/31 01:39:10;;;;;;;14.48;12.98;;;;;;;21.48;62.35;94603.78;5086730;28;20024;-86
2023/07/31 01:41:35;;;;;;;14.43;12.93;;;;;;;21.47;62.65;94605.06;5086664;28;20028;-86
2023/07/31 01:44:00;;;;;;;16.63;14.85;;;;;;;21.48;62.50;94605.81;5087934;28;20498;-86
2023/07/31 01:46:26;;;;;;;15.35;13.85;;;;;;;21.46;62.51;94606.34;5086323;28;20062;-86
2023/07/31 01:48:51;;;;;;;14.07;12.70;;;;;;;21.38;62.97;94599.75;5085966;28;20020;-86
2023/07/31 01:51:17;;;;;;;15.45;14.00;;;;;;;21.31;63.24;94605.16;5087396;28;20020;-87
2023/07/31 01:53:42;;;;;;;16.73;15.02;;;;;;;21.27;63.63;94605.38;5087580;28;20024;-86
2023/07/31 01:56:08;;;;;;;17.58;15.82;;;;;;;21.21;63.95;94599.06;5086786;28;20028;-86
2023/07/31 01:58:33;;;;;;;16.23;14.63;;;;;;;21.20;64.03;94608.72;5087373;28;20498;-86
2023/07/31 02:00:58;;;;;;;16.38;14.77;;;;;;;21.19;64.25;94607.19;5087984;28;20016;-86
2023/07/31 02:03:24;;;;;;;16.55;14.80;;;;;;;21.12;64.00;94605.72;5086285;28;20556;-87
2023/07/31 02:05:50;;;;;;;17.33;15.52;;;;;;;21.09;64.52;94609.50;5086867;28;20024;-86
2023/07/31 02:08:16;;;;;;;17.63;15.77;;;;;;;21.07;64.87;94611.31;5087091;28;20047;-87
2023/07/31 02:10:41;;;;;;;17.42;15.73;;;;;;;21.12;64.65;94616.88;5086204;28;20099;-86
2023/07/31 02:13:07;;;;;;;18.63;15.27;;;;;;;21.15;64.82;94610.25;5092429;28;20069;-87
2023/07/31 02:15:32;;;;;;;18.70;16.77;;;;;;;21.17;64.50;94610.53;5094269;28;20035;-87
2023/07/31 02:17:58;;;;;;;19.27;16.65;;;;;;;21.15;64.45;94609.50;5095298;28;20043;-87
2023/07/31 02:20:23;;;;;;;17.30;15.50;;;;;;;21.16;64.94;94608.22;5085923;28;20027;-86
2023/07/31 02:22:48;;;;;;;18.40;16.40;;;;;;;21.17;65.06;94621.69;5087659;28;20117;-86
2023/07/31 02:25:14;;;;;;;18.42;16.55;;;;;;;21.21;64.62;94615.81;5085529;28;20445;-86
2023/07/31 02:27:39;;;;;;;18.70;16.30;;;;;;;21.26;64.71;94617.06;5087808;28;20121;-85
2023/07/31 02:30:05;;;;;;;18.27;16.42;;;;;;;21.25;64.54;94613.53;5087113;28;20483;-86
2023/07/31 02:32:31;;;;;;;17.98;16.17;;;;;;;21.23;64.89;94613.28;5086455;28;20020;-86
2023/07/31 02:34:56;;;;;;;18.75;16.83;;;;;;;21.25;64.59;94612.78;5086443;28;20375;-86
2023/07/31 02:37:21;;;;;;;18.42;16.55;;;;;;;21.31;64.95;94614.28;5087152;28;20417;-86
2023/07/31 02:39:47;;;;;;;18.77;16.77;;;;;;;21.38;64.49;94610.94;5087201;28;20028;-86
2023/07/31 02:42:13;;;;;;;18.77;16.88;;;;;;;21.37;64.45;94614.25;5086428;28;20024;-86
2023/07/31 02:44:38;;;;;;;18.20;16.33;;;;;;;21.34;64.41;94621.66;5086850;28;20077;-84
2023/07/31 02:47:04;;;;;;;19.33;17.33;;;;;;;21.36;64.19;94624.69;5085664;28;20036;-86
2023/07/31 02:49:29;;;;;;;18.83;16.67;;;;;;;21.36;64.07;94626.72;5087321;28;20494;-85
2023/07/31 02:51:55;;;;;;;18.10;16.20;;;;;;;21.37;64.28;94626.19;5089049;28;20076;-86
2023/07/31 02:54:21;;;;;;;19.15;17.17;;;;;;;21.36;64.11;94630.28;5090279;28;20066;-85
2023/07/31 02:56:47;;;;;;;19.67;17.58;;;;;;;21.36;64.44;94632.31;5090527;28;20099;-85
2023/07/31 02:59:12;;;;;;;18.95;16.95;;;;;;;21.28;63.95;94631.31;5089590;28;20111;-85
2023/07/31 03:01:38;;;;;;;18.38;16.50;;;;;;;21.34;64.08;94641.22;5091004;28;20028;-85
2023/07/31 03:04:04;;;;;;;19.35;17.45;;;;;;;21.38;64.38;94652.88;5088439;28;20028;-86
2023/07/31 03:06:29;;;;;;;20.33;17.65;;;;;;;21.41;64.17;94648.31;5094564;28;20112;-85
2023/07/31 03:08:55;;;;;;;18.38;16.38;;;;;;;21.41;64.24;94646.28;5088869;28;20448;-85
2023/07/31 03:11:20;;;;;;;19.40;17.38;;;;;;;21.44;64.33;94648.03;5090944;28;20541;-84
2023/07/31 03:13:45;;;;;;;20.85;17.75;;;;;;;21.49;64.27;94649.28;5089319;28;20020;-84
2023/07/31 03:16:11;;;;;;;18.92;17.00;;;;;;;21.48;63.92;94644.97;5090331;28;20028;-86
2023/07/31 03:18:36;;;;;;;19.23;17.23;;;;;;;21.47;64.31;94652.59;5091538;28;20111;-86
2023/07/31 03:21:02;;;;;;;20.17;16.75;;;;;;;21.48;63.86;94647.75;5096639;28;20433;-84
2023/07/31 03:23:27;;;;;;;19.20;17.20;;;;;;;21.48;64.11;94636.56;5090778;28;20689;-85
2023/07/31 03:25:58;;;;;;;19.13;17.20;;;;;;;21.51;64.29;94643.19;5089702;28;20097;-84
2023/07/31 03:28:24;;;;;;;18.67;16.67;;;;;;;21.51;64.13;94643.94;5089122;28;20405;-85
2023/07/31 03:30:49;;;;;;;18.65;16.60;;;;;;;21.49;63.88;94646.47;5089714;28;20038;-85
2023/07/31 03:33:15;;;;;;;19.48;17.35;;;;;;;21.48;63.81;94651.31;5089352;28;20028;-85
2023/07/31 03:35:40;;;;;;;19.63;17.30;;;;;;;21.48;63.81;94661.75;5089245;28;20030;-84
2023/07/31 03:38:05;;;;;;;21.52;18.02;;;;;;;21.45;63.85;94657.94;5089405;28;20047;-84
2023/07/31 03:40:31;;;;;;;19.85;17.75;;;;;;;21.46;63.41;94658.72;5090402;28;20409;-86
2023/07/31 03:42:56;;;;;;;18.42;16.52;;;;;;;21.46;63.40;94656.69;5088891;28;20024;-84
2023/07/31 03:45:22;;;;;;;19.88;17.58;;;;;;;21.45;63.52;94668.38;5090154;28;20019;-83
2023/07/31 03:47:47;;;;;;;19.88;17.75;;;;;;;21.48;63.38;94670.88;5089741;28;20443;-83
2023/07/31 03:50:12;;;;;;;19.27;17.27;;;;;;;21.47;63.35;94677.75;5090042;28;20030;-85
2023/07/31 03:52:38;;;;;;;19.70;17.63;;;;;;;21.46;63.54;94670.66;5086726;28;20031;-85
2023/07/31 03:55:04;;;;;;;19.95;17.45;;;;;;;21.44;63.81;94675.97;5088216;28;20086;-85
2023/07/31 03:57:29;;;;;;;20.23;18.02;;;;;;;21.46;63.51;94672.69;5093031;28;20012;-85
2023/07/31 03:59:54;;;;;;;21.40;18.42;;;;;;;21.43;63.67;94677.25;5089257;28;20055;-87
2023/07/31 04:02:20;;;;;;;22.77;20.30;;;;;;;21.42;63.80;94678.53;5090060;28;20032;-85
2023/07/31 04:04:45;;;;;;;21.30;18.85;;;;;;;21.44;63.60;94687.16;5089729;28;20023;-87
2023/07/31 04:07:11;;;;;;;22.90;19.77;;;;;;;21.47;63.89;94677.00;5090378;28;20069;-86
2023/07/31 04:09:36;;;;;;;22.73;19.20;;;;;;;21.53;63.77;94674.19;5090058;28;20027;-84
2023/07/31 04:12:01;;;;;;;23.23;19.38;;;;;;;21.56;63.38;94682.28;5088717;28;20091;-82
2023/07/31 04:14:27;;;;;;;23.58;18.67;;;;;;;21.56;63.14;94684.31;5087634;28;20035;-83
2023/07/31 04:16:52;;;;;;;20.27;18.08;;;;;;;21.56;63.15;94678.72;5086968;28;20410;-83
2023/07/31 04:19:18;;;;;;;21.52;19.23;;;;;;;21.56;63.13;94682.28;5090161;28;20028;-84
2023/07/31 04:21:43;;;;;;;20.73;17.45;;;;;;;21.52;63.05;94683.84;5091920;28;20023;-87
2023/07/31 04:24:09;;;;;;;22.10;19.13;;;;;;;21.52;63.08;94681.81;5099982;28;20080;-87
2023/07/31 04:26:34;;;;;;;20.08;17.40;;;;;;;21.55;63.12;94685.59;5105964;28;20038;-84
2023/07/31 04:28:59;;;;;;;20.52;18.33;;;;;;;21.58;62.94;94688.16;5092519;28;20060;-79
2023/07/31 04:31:25;;;;;;;20.38;17.95;;;;;;;21.55;62.79;94688.41;5095444;28;20020;-79
2023/07/31 04:33:50;;;;;;;20.38;18.10;;;;;;;21.52;62.95;94695.03;5090704;28;20024;-80
2023/07/31 04:36:16;;;;;;;20.35;18.15;;;;;;;21.56;62.71;94696.28;5094211;28;20128;-83
2023/07/31 04:38:41;;;;;;;21.42;18.70;;;;;;;21.56;62.73;94685.09;5089415;28;20520;-81
2023/07/31 04:41:06;;;;;;;21.35;17.48;;;;;;;21.61;62.67;94691.94;5089802;28;20051;-89
2023/07/31 04:43:32;;;;;;;21.83;18.70;;;;;;;21.60;62.67;94685.59;5087458;28;20477;-80
2023/07/31 04:45:57;;;;;;;21.52;17.90;;;;;;;21.65;62.57;94689.63;5088125;28;20474;-81
2023/07/31 04:48:23;;;;;;;20.25;17.65;;;;;;;21.61;62.52;94684.31;5089115;28;20027;-80
2023/07/31 04:50:49;;;;;;;19.10;17.10;;;;;;;21.63;62.78;94681.78;5089505;28;20564;-83
2023/07/31 04:53:14;;;;;;;19.98;17.83;;;;;;;21.70;62.36;94689.59;5089560;28;20024;-84
2023/07/31 04:55:40;;;;;;;18.83;16.83;;;;;;;21.71;62.52;94679.94;5070947;28;20047;-80
2023/07/31 04:58:05;;;;;;;19.00;16.92;;;;;;;21.73;62.34;94685.78;5088992;28;20032;-79
2023/07/31 05:00:30;;;;;;;18.65;16.33;;;;;;;21.77;62.29;94693.13;5089007;28;20470;-79
2023/07/31 05:02:56;;;;;;;19.05;17.05;;;;;;;21.78;62.18;94680.66;5088752;28;20063;-80
2023/07/31 05:05:21;;;;;;;19.85;16.90;;;;;;;21.82;61.88;94686.75;5087968;28;20016;-80
2023/07/31 05:07:47;;;;;;;18.38;16.58;;;;;;;21.80;62.11;94687.28;5088898;28;20177;-79
2023/07/31 05:10:12;;;;;;;18.00;16.20;;;;;;;21.84;61.91;94676.56;5086631;28;20102;-82
2023/07/31 05:12:37;;;;;;;17.13;15.35;;;;;;;21.82;61.85;94681.91;5087698;28;20028;-82
2023/07/31 05:15:03;;;;;;;18.55;15.70;;;;;;;21.86;61.78;94692.84;5087697;28;20115;-79
2023/07/31 05:17:29;;;;;;;17.33;15.63;;;;;;;21.89;61.51;94675.75;5088354;28;20024;-80
2023/07/31 05:19:54;;;;;;;16.75;15.02;;;;;;;21.92;61.47;94687.97;5087971;28;20410;-79
2023/07/31 05:22:20;;;;;;;16.20;14.63;;;;;;;21.92;61.30;94685.19;5088102;28;20062;-78
2023/07/31 05:24:45;;;;;;;15.48;13.60;;;;;;;21.98;61.22;94688.69;5088631;28;20059;-78
2023/07/31 05:27:12;;;;;;;16.50;14.90;;;;;;;22.00;61.09;94686.91;5088224;28;20103;-79
2023/07/31 05:29:37;;;;;;;15.82;14.20;;;;;;;22.05;60.87;94679.00;5088536;28;20024;-77
2023/07/31 05:32:03;;;;;;;14.32;12.82;;;;;;;22.08;60.83;94684.31;5086193;28;20486;-79
2023/07/31 05:34:28;;;;;;;13.50;12.10;;;;;;;22.15;60.25;94683.03;5088231;28;20024;-80
2023/07/31 05:36:54;;;;;;;13.27;11.98;;;;;;;22.25;59.86;94684.22;5087745;28;20167;-77
2023/07/31 05:39:19;;;;;;;12.10;10.90;;;;;;;22.26;58.67;94680.91;5087099;28;20032;-78
2023/07/31 05:41:45;;;;;;;12.48;11.15;;;;;;;22.30;58.50;94675.00;5087439;28;20023;-78
2023/07/31 05:44:10;;;;;;;10.23;9.23;;;;;;;22.32;58.34;94682.91;5068773;28;20024;-79
2023/07/31 05:46:36;;;;;;;13.45;9.95;;;;;;;22.35;57.83;94691.00;5086658;28;20501;-78
2023/07/31 05:49:01;;;;;;;10.43;9.32;;;;;;;22.34;57.13;94680.34;5087091;28;20028;-78
2023/07/31 05:51:27;;;;;;;9.80;8.23;;;;;;;22.32;57.13;94678.06;5087728;28;20032;-79
2023/07/31 05:53:53;;;;;;;9.65;8.65;;;;;;;22.37;57.32;94682.88;5068660;28;20028;-79
2023/07/31 05:56:18;;;;;;;8.95;8.05;;;;;;;22.36;57.25;94678.53;5087822;28;20027;-79
2023/07/31 05:58:43;;;;;;;8.52;7.72;;;;;;;22.44;56.68;94681.53;5069303;28;20043;-79
2023/07/31 06:01:09;;;;;;;8.55;7.32;;;;;;;22.42;56.64;94689.69;5087184;28;20059;-80
2023/07/31 06:03:34;;;;;;;8.57;7.50;;;;;;;22.45;56.45;94689.41;5086336;28;20066;-79
2023/07/31 06:06:00;;;;;;;8.32;7.53;;;;;;;22.49;56.52;94695.50;5086261;28;20506;-79
2023/07/31 06:08:25;;;;;;;7.65;6.70;;;;;;;22.54;55.55;94688.34;5086403;28;20048;-80
2023/07/31 06:10:51;;;;;;;8.27;6.75;;;;;;;22.56;55.66;94696.97;5085446;28;20043;-79
2023/07/31 06:13:16;;;;;;;6.55;5.95;;;;;;;22.59;55.25;94697.94;5087611;28;20385;-79
2023/07/31 06:15:41;;;;;;;6.82;6.13;;;;;;;22.65;54.80;94699.44;5086260;28;20120;-80
2023/07/31 06:18:07;;;;;;;7.43;6.00;;;;;;;22.71;54.45;94705.75;5087043;28;20024;-79
2023/07/31 06:20:34;;;;;;;7.60;6.10;;;;;;;22.75;54.33;94705.47;5085693;28;20028;-79
2023/07/31 06:22:59;;;;;;;6.40;5.30;;;;;;;22.75;54.48;94702.66;5085843;28;20467;-79
2023/07/31 06:25:25;;;;;;;6.85;5.50;;;;;;;22.80;54.50;94708.22;5088691;28;20032;-80
2023/07/31 06:27:50;;;;;;;6.55;5.03;;;;;;;22.84;54.16;94704.38;5090696;28;20031;-79
2023/07/31 06:30:15;;;;;;;5.72;5.18;;;;;;;22.86;53.54;94710.97;5090422;28;20027;-80
2023/07/31 06:32:41;;;;;;;6.85;5.30;;;;;;;22.92;53.63;94714.50;5090167;28;20564;-79
2023/07/31 06:35:07;;;;;;;7.35;5.40;;;;;;;22.98;53.57;94709.59;5092180;28;20417;-78
2023/07/31 06:37:32;;;;;;;6.75;5.35;;;;;;;23.03;53.07;94708.03;5091938;28;20056;-77
2023/07/31 06:39:57;;;;;;;5.07;4.47;;;;;;;23.09;53.07;94707.97;5091728;28;20106;-78
2023/07/31 06:42:23;;;;;;;5.68;4.97;;;;;;;23.14;52.91;94709.97;5073384;28;20047;-78
2023/07/31 06:44:48;;;;;;;6.30;5.18;;;;;;;23.19;52.23;94704.31;5091638;28;20020;-77
2023/07/31 06:47:14;;;;;;;7.30;4.47;;;;;;;23.27;52.14;94715.69;5091438;28;20390;-77
2023/07/31 06:49:39;;;;;;;5.00;4.10;;;;;;;23.38;51.58;94712.00;5091311;28;20080;-79
2023/07/31 06:52:05;;;;;;;6.22;4.22;;;;;;;23.47;51.21;94709.63;5091523;28;20414;-79
2023/07/31 06:54:30;;;;;;;6.47;4.15;;;;;;;23.55;50.84;94710.53;5091042;28;20020;-79
2023/07/31 06:56:56;;;;;;;5.72;4.13;;;;;;;23.61;50.59;94695.69;5090815;28;20020;-78
2023/07/31 06:59:21;;;;;;;4.60;3.80;;;;;;;23.67;50.20;94696.38;5091103;28;20036;-78
2023/07/31 07:01:46;;;;;;;5.28;4.38;;;;;;;23.68;50.55;94701.47;5089424;28;20490;-79
2023/07/31 07:04:13;;;;;;;5.43;4.05;;;;;;;23.62;49.99;94702.78;5090486;28;20013;-76
2023/07/31 07:06:38;;;;;;;5.63;4.10;;;;;;;23.59;50.08;94694.16;5089309;28;20020;-78
2023/07/31 07:09:04;;;;;;;4.20;3.70;;;;;;;23.63;49.69;94705.13;5090532;28;20368;-78
2023/07/31 07:11:29;;;;;;;5.55;3.88;;;;;;;23.68;49.86;94709.88;5090573;28;20024;-78
2023/07/31 07:13:55;;;;;;;4.47;3.67;;;;;;;23.66;49.84;94706.09;5090670;28;20107;-77
2023/07/31 07:16:20;;;;;;;4.50;3.97;;;;;;;23.68;49.62;94689.47;5088804;28;20466;-78
2023/07/31 07:18:45;;;;;;;5.25;4.25;;;;;;;23.64;49.81;94700.28;5089110;28;20024;-79
2023/07/31 07:21:15;;;;;;;4.55;4.00;;;;;;;23.69;50.14;94691.03;5088704;28;20191;-78
2023/07/31 07:23:41;;;;;;;4.80;3.95;;;;;;;23.74;49.87;94690.16;5090271;28;20083;-78
2023/07/31 07:26:06;;;;;;;5.13;3.60;;;;;;;23.76;49.89;94688.38;5090507;28;20454;-78
2023/07/31 07:28:32;;;;;;;4.68;3.65;;;;;;;23.74;49.55;94682.53;5089203;28;20508;-78
2023/07/31 07:30:58;;;;;;;4.32;3.47;;;;;;;23.79;49.43;94698.53;5090339;28;20020;-78
2023/07/31 07:33:23;;;;;;;5.72;4.18;;;;;;;23.79;49.52;94690.09;5088886;28;20791;-77
2023/07/31 07:35:48;;;;;;;6.00;3.95;;;;;;;23.85;49.37;94684.41;5071575;28;20036;-77
2023/07/31 07:38:15;;;;;;;3.90;3.45;;;;;;;23.96;49.03;94687.06;5088100;28;20430;-77
2023/07/31 07:40:40;;;;;;;3.80;3.40;;;;;;;23.99;48.73;94697.25;5089645;28;20039;-77
2023/07/31 07:43:06;;;;;;;5.35;3.75;;;;;;;24.09;48.54;94706.06;5088596;28;20516;-78
2023/07/31 07:45:31;;;;;;;6.03;3.30;;;;;;;24.24;47.99;94700.72;5088506;28;20028;-77
2023/07/31 07:47:57;;;;;;;3.95;3.55;;;;;;;24.29;47.54;94707.53;5089780;28;20034;-77
2023/07/31 07:50:23;;;;;;;3.80;3.10;;;;;;;24.29;47.75;94693.50;5088512;28;20028;-78
2023/07/31 07:52:48;;;;;;;6.07;3.55;;;;;;;24.33;47.71;94710.81;5088677;28;20024;-77
2023/07/31 07:55:14;;;;;;;5.90;3.78;;;;;;;24.43;47.56;94705.56;5089496;28;20069;-77
2023/07/31 07:57:39;;;;;;;5.63;3.53;;;;;;;24.46;47.74;94705.28;5089722;28;20472;-77
2023/07/31 08:00:05;;;;;;;4.60;3.58;;;;;;;24.45;47.48;94703.00;5089343;28;20024;-77
2023/07/31 08:02:31;;;;;;;5.32;3.30;;;;;;;24.53;46.58;94713.06;5089856;28;20024;-77
2023/07/31 08:04:56;;;;;;;7.63;4.10;;;;;;;24.60;46.58;94706.06;5089393;28;20023;-77
2023/07/31 08:07:22;;;;;;;4.18;3.08;;;;;;;24.67;45.87;94711.09;5098495;28;20036;-77
2023/07/31 08:09:47;;;;;;;5.60;3.47;;;;;;;24.71;45.94;94703.06;5099312;28;20058;-78
2023/07/31 08:12:12;;;;;;;4.10;3.33;;;;;;;24.84;45.05;94703.13;5097056;28;20469;-77
2023/07/31 08:14:38;;;;;;;4.63;3.03;;;;;;;24.94;44.34;94697.06;5089549;28;20411;-77
2023/07/31 08:17:04;;;;;;;4.35;2.97;;;;;;;25.00;45.17;94703.34;5090092;28;20507;-77
2023/07/31 08:19:29;;;;;;;3.60;3.08;;;;;;;25.11;44.83;94700.38;5090832;28;20074;-77
2023/07/31 08:21:55;;;;;;;4.78;2.97;;;;;;;25.19;44.53;94709.69;5090148;28;20028;-77
2023/07/31 08:24:20;;;;;;;4.95;3.40;;;;;;;25.32;44.65;94712.53;5090016;28;20032;-76
2023/07/31 08:26:46;;;;;;;4.38;3.30;;;;;;;25.34;44.29;94709.91;5090034;28;20177;-76
2023/07/31 08:29:12;;;;;;;6.30;3.40;;;;;;;25.46;43.85;94710.47;5088330;28;20035;-79
2023/07/31 08:31:37;;;;;;;4.55;3.10;;;;;;;25.60;43.35;94705.59;5072020;28;20024;-78
2023/07/31 08:34:03;;;;;;;4.90;2.65;;;;;;;25.71;42.09;94710.25;5088067;28;20569;-78
2023/07/31 08:36:28;;;;;;;5.32;3.28;;;;;;;25.74;42.11;94698.69;5088523;28;20020;-79
2023/07/31 08:38:53;;;;;;;4.65;3.20;;;;;;;25.80;42.14;94707.75;5089181;28;20099;-78
2023/07/31 08:41:19;;;;;;;9.20;3.53;;;;;;;25.94;42.06;94705.69;5088111;28;20024;-77
2023/07/31 08:43:46;;;;;;;4.07;3.33;;;;;;;26.06;41.82;94700.59;5087956;28;20659;-77
2023/07/31 08:46:11;;;;;;;5.40;3.88;;;;;;;26.23;41.78;94703.03;5087812;28;20039;-78
2023/07/31 08:48:38;;;;;;;5.90;3.47;;;;;;;26.33;41.46;94707.66;5086549;28;20024;-78
2023/07/31 08:51:04;;;;;;;5.18;3.40;;;;;;;26.47;40.79;94699.94;5088999;28;20137;-78
2023/07/31 08:53:29;;;;;;;5.57;3.28;;;;;;;26.53;40.24;94703.38;5088948;28;20027;-78
2023/07/31 08:55:56;;;;;;;3.50;2.75;;;;;;;26.58;40.12;94699.66;5088723;28;20560;-78
2023/07/31 08:58:23;;;;;;;3.92;2.75;;;;;;;26.64;40.44;94705.91;5087640;28;20123;-78
2023/07/31 09:00:50;;;;;;;3.13;2.42;;;;;;;26.60;39.79;94697.03;5087490;28;20096;-78
2023/07/31 09:03:17;;;;;;;4.45;3.03;;;;;;;26.49;40.51;94691.66;5087429;28;20020;-78
2023/07/31 09:05:45;;;;;;;4.78;3.10;;;;;;;26.60;39.97;94702.69;5087565;28;20024;-78
2023/07/31 09:08:12;;;;;;;5.47;3.50;;;;;;;26.73;39.69;94705.47;5070065;28;20170;-78
2023/07/31 09:10:42;;;;;;;4.40;2.97;;;;;;;26.85;39.72;94708.75;5070621;28;20024;-77
2023/07/31 09:13:08;;;;;;;4.63;3.35;;;;;;;26.98;39.18;94699.47;5070076;28;20437;-77
2023/07/31 09:15:34;;;;;;;3.60;2.97;;;;;;;27.01;39.58;94695.50;5087702;28;20061;-77
2023/07/31 09:18:01;;;;;;;3.72;3.00;;;;;;;27.07;39.47;94692.59;5069822;28;20482;-78
2023/07/31 09:20:26;;;;;;;3.90;3.50;;;;;;;27.17;39.12;94685.16;5087767;28;20470;-78
2023/07/31 09:22:52;;;;;;;4.47;2.90;;;;;;;27.23;39.26;94686.50;5086844;28;20024;-78
2023/07/31 09:25:21;;;;;;;3.95;2.80;;;;;;;27.14;39.34;94686.25;5086801;28;20445;-77
2023/07/31 09:27:48;;;;;;;6.47;2.90;;;;;;;27.29;39.13;94685.59;5069916;28;20044;-78
2023/07/31 09:30:14;;;;;;;5.18;3.15;;;;;;;27.38;39.12;94677.41;5087839;28;20024;-78
2023/07/31 09:32:39;;;;;;;3.63;2.67;;;;;;;27.44;38.69;94671.59;5088009;28;20101;-78
2023/07/31 09:35:29;;;;;;;4.97;3.50;;;;;;;27.54;37.90;94678.25;5086572;28;20482;-78
2023/07/31 09:38:00;;;;;;;3.28;2.67;;;;;;;27.68;37.52;94659.09;5086730;28;20127;-78
2023/07/31 09:40:29;;;;;;;3.30;2.75;;;;;;;27.84;37.18;94666.38;5086455;28;20023;-78
2023/07/31 09:43:00;;;;;;;4.60;2.10;;;;;;;28.04;37.00;94673.22;5086173;28;20486;-78
2023/07/31 09:45:26;;;;;;;3.63;2.70;;;;;;;28.02;36.58;94658.91;5087725;28;20056;-77
2023/07/31 09:47:51;;;;;;;3.08;2.17;;;;;;;28.25;36.05;94662.56;5087467;28;20031;-78
2023/07/31 09:50:17;;;;;;;3.78;2.30;;;;;;;28.39;36.25;94668.84;5086134;28;20111;-78
2023/07/31 09:52:42;;;;;;;2.83;2.30;;;;;;;28.48;35.48;94653.41;5086084;28;20020;-78
2023/07/31 09:55:11;;;;;;;4.45;2.53;;;;;;;28.55;35.66;94663.97;5086299;28;20035;-78
2023/07/31 09:57:44;;;;;;;2.80;2.35;;;;;;;28.60;35.47;94662.28;5086214;28;20063;-78
2023/07/31 10:00:10;;;;;;;4.78;2.33;;;;;;;28.65;35.20;94650.78;5086204;28;20024;-78
2023/07/31 10:02:37;;;;;;;3.10;2.40;;;;;;;28.83;34.60;94660.22;5087601;28;20192;-78
2023/07/31 10:05:03;;;;;;;3.00;2.20;;;;;;;28.97;34.03;94653.09;5086080;28;20518;-77
2023/07/31 10:07:30;;;;;;;3.25;1.90;;;;;;;29.12;34.50;94660.81;5087853;28;20044;-78
2023/07/31 10:10:00;;;;;;;3.88;2.15;;;;;;;29.05;34.16;94653.81;5086442;28;20048;-78
2023/07/31 10:12:28;;;;;;;2.78;2.10;;;;;;;28.94;34.32;94657.03;5086029;28;20028;-78
2023/07/31 10:14:54;;;;;;;3.55;2.20;;;;;;;29.15;33.77;94656.09;5084714;28;20563;-77
2023/07/31 10:17:21;;;;;;;3.08;2.35;;;;;;;29.26;33.75;94662.13;5084860;28;20215;-77
2023/07/31 10:19:47;;;;;;;3.20;2.50;;;;;;;29.51;33.42;94658.66;5084356;28;20024;-78
2023/07/31 10:22:14;;;;;;;4.55;3.30;;;;;;;29.67;32.93;94650.91;5084885;28;20470;-77
2023/07/31 10:24:39;;;;;;;4.45;2.20;;;;;;;29.80;32.80;94648.59;5084837;28;20027;-77
2023/07/31 10:27:07;;;;;;;2.90;2.60;;;;;;;29.97;32.62;94644.38;5084758;28;20020;-77
2023/07/31 10:29:32;;;;;;;5.88;2.13;;;;;;;30.22;32.10;94638.81;5085069;28;20063;-77
2023/07/31 10:31:59;;;;;;;3.17;1.70;;;;;;;30.42;31.69;94638.50;5067268;28;20051;-78
2023/07/31 10:34:24;;;;;;;2.80;2.17;;;;;;;30.51;31.04;94645.63;5068202;28;20343;-78
2023/07/31 10:36:50;;;;;;;3.05;2.13;;;;;;;30.64;31.06;94636.84;5085429;28;20480;-78
2023/07/31 10:39:39;;;;;;;2.33;1.85;;;;;;;30.73;30.54;94637.56;5086282;28;20024;-77
2023/07/31 10:42:12;;;;;;;2.78;1.85;;;;;;;30.92;30.22;94635.72;5084532;28;20082;-78
2023/07/31 10:44:38;;;;;;;4.05;1.90;;;;;;;31.12;30.34;94630.25;5086392;28;20020;-78
2023/07/31 10:47:03;;;;;;;2.83;2.10;;;;;;;31.23;29.83;94641.13;5084817;28;20043;-78
2023/07/31 10:49:31;;;;;;;6.07;2.15;;;;;;;31.28;28.85;94640.16;5067918;28;20028;-78
2023/07/31 10:51:57;;;;;;;2.30;1.70;;;;;;;31.11;29.55;94632.31;5085324;28;20521;-78
2023/07/31 10:54:22;;;;;;;2.17;1.73;;;;;;;31.23;29.10;94629.00;5085813;28;20024;-78
2023/07/31 10:56:50;;;;;;;3.60;1.70;;;;;;;31.33;29.00;94624.97;5085489;28;20480;-77
2023/07/31 10:59:17;;;;;;;2.20;1.58;;;;;;;31.56;28.81;94638.16;5083882;28;20135;-78
2023/07/31 11:01:53;;;;;;;6.38;2.50;;;;;;;31.39;28.37;94625.47;5086067;28;20024;-78
2023/07/31 11:04:24;;;;;;;2.65;1.65;;;;;;;31.16;28.82;94622.06;5085787;28;20028;-78
2023/07/31 11:06:57;;;;;;;3.50;2.10;;;;;;;31.24;29.11;94628.41;5067644;28;20077;-78
2023/07/31 11:09:24;;;;;;;2.72;1.92;;;;;;;31.46;28.58;94623.88;5086075;28;20035;-78
2023/07/31 11:11:51;;;;;;;2.70;2.10;;;;;;;31.49;28.35;94611.34;5085608;28;20090;-78
2023/07/31 11:14:17;;;;;;;4.65;1.83;;;;;;;31.35;28.22;94618.69;5071390;28;20343;-78
2023/07/31 11:16:42;;;;;;;2.83;1.70;;;;;;;30.94;28.69;94616.00;5088130;28;20048;-78
2023/07/31 11:19:08;;;;;;;3.05;1.88;;;;;;;30.89;28.88;94619.84;5087661;28;20367;-78
2023/07/31 11:21:34;;;;;;;2.28;1.80;;;;;;;30.78;28.90;94622.41;5089490;28;20135;-78